Walton-on-Thames, United Kingdom
Current Conditions -  °F | °C
As of 6:20 PM on Thursday 23 Oct 2014 (Local Time) from EGLL Reporting Station
Broken Clouds Broken Clouds  
Wind Chill: 59°   Ceiling: 2700
Heat Index: 59°   Visibility: 6mi
Dew Point: 55°   Wind: 10mph
Humidity: 88%   Direction: 210°SSW
Pressure: 30.03"   Gusts: NA
Location:  51.39°N, 0.42°W
Report Text: EGLL 231720Z 21009KT 9999 BKN027 BKN039 15/13 Q1017
Loading
Personal Weather Stations






























Interactive Weather Map
Tropical Storm Tracking
New forecast layout! Learn more

10-Day Weather Forecast

Advertisements
Track Severe Weather on mobile